Time;durP1;ratioP1;P1;durP2;ratioP2;P2;SDS_P1;SDS_P2;PMS_P1;PMS_P2;Temp;Humidity;BMP_temperature;BMP_pressure;BME280_temperature;BME280_humidity;BME280_pressure;Samples;Min_cycle;Max_cycle;Signal;HPM_P1;HPM_P2
2021/08/30 00:05:33;;;;;;;15.80;14.10;;;;;;;11.31;76.03;99115.64;469159;1194;145187;-61
2021/08/30 00:15:37;;;;;;;18.60;16.30;;;;;;;11.14;76.13;99108.65;461767;1194;142256;-60
2021/08/30 00:25:40;;;;;;;17.50;15.40;;;;;;;11.05;76.54;99107.41;461359;1194;141312;-59
2021/08/30 00:35:43;;;;;;;22.00;19.30;;;;;;;10.94;76.62;99114.70;472884;1190;154951;-61
2021/08/30 00:45:46;;;;;;;22.50;19.50;;;;;;;10.89;77.01;99107.56;472795;1190;141788;-61
2021/08/30 00:55:49;;;;;;;19.60;17.60;;;;;;;10.85;77.23;99114.11;469548;1194;143420;-60
2021/08/30 01:05:59;;;;;;;19.20;16.60;;;;;;;10.84;77.18;99115.95;472769;1194;142502;-60
2021/08/30 01:16:04;;;;;;;16.10;14.20;;;;;;;10.85;76.95;99107.64;467696;1194;140964;-60
2021/08/30 01:26:10;;;;;;;21.50;17.20;;;;;;;10.90;76.87;99109.58;472021;1194;141844;-59
2021/08/30 01:36:14;;;;;;;18.80;15.10;;;;;;;10.94;76.93;99105.94;473019;1183;141420;-61
2021/08/30 01:46:18;;;;;;;17.60;15.80;;;;;;;10.90;76.88;99089.04;472768;1191;142378;-60
2021/08/30 01:56:23;;;;;;;17.50;15.80;;;;;;;10.81;77.17;99077.66;471813;1194;192870;-61
2021/08/30 02:06:27;;;;;;;20.20;13.70;;;;;;;10.73;77.05;99072.80;472867;1194;142709;-62
2021/08/30 02:16:30;;;;;;;15.30;13.70;;;;;;;10.69;77.16;99072.55;473133;1190;144377;-61
2021/08/30 02:26:39;;;;;;;15.40;13.50;;;;;;;10.75;77.24;99067.56;472120;1194;142971;-60
2021/08/30 02:36:44;;;;;;;14.10;12.60;;;;;;;10.82;77.43;99041.30;472823;1193;141660;-60
2021/08/30 02:46:48;;;;;;;13.10;11.80;;;;;;;10.95;77.30;99033.58;471904;1194;141286;-60
2021/08/30 02:56:52;;;;;;;13.00;11.70;;;;;;;11.04;77.29;99036.19;472936;1191;141254;-61
2021/08/30 03:06:56;;;;;;;14.20;12.60;;;;;;;11.09;77.34;99050.35;472759;1194;142244;-60
2021/08/30 03:17:02;;;;;;;13.30;11.90;;;;;;;11.17;77.53;99051.88;466351;1194;161653;-60
2021/08/30 03:27:06;;;;;;;13.60;11.40;;;;;;;11.25;77.58;99058.64;472860;1194;144403;-61
2021/08/30 03:37:11;;;;;;;12.90;11.60;;;;;;;11.31;77.58;99041.86;465751;1194;141755;-60
2021/08/30 03:47:14;;;;;;;12.30;11.10;;;;;;;11.40;77.73;99054.17;472105;1194;141667;-61
2021/08/30 03:57:18;;;;;;;13.60;12.00;;;;;;;11.50;77.91;99055.92;473077;1184;142832;-60
2021/08/30 04:07:21;;;;;;;12.50;11.30;;;;;;;11.56;77.97;99059.49;472993;1194;141623;-61
2021/08/30 04:17:24;;;;;;;13.40;12.00;;;;;;;11.62;78.03;99066.88;463160;1194;145269;-61
2021/08/30 04:27:27;;;;;;;14.20;12.80;;;;;;;11.66;78.18;99072.70;456059;1195;145319;-59
2021/08/30 04:37:30;;;;;;;16.70;12.70;;;;;;;11.74;78.34;99076.35;465899;1194;141990;-60
2021/08/30 04:47:34;;;;;;;12.50;11.40;;;;;;;11.82;78.38;99075.59;471908;1194;141680;-60
2021/08/30 04:57:37;;;;;;;15.50;13.40;;;;;;;11.89;78.32;99069.02;473112;1191;142347;-60
2021/08/30 05:07:40;;;;;;;16.10;13.00;;;;;;;12.02;78.33;99065.42;471911;1194;142917;-59
2021/08/30 05:17:44;;;;;;;13.30;11.90;;;;;;;12.17;78.43;99066.17;472944;1194;141355;-61
2021/08/30 05:27:51;;;;;;;13.20;11.70;;;;;;;12.33;78.35;99068.09;472038;1194;141932;-61
2021/08/30 05:37:54;;;;;;;13.00;11.70;;;;;;;12.46;78.16;99069.16;472090;1194;143446;-61
2021/08/30 05:47:57;;;;;;;16.30;14.40;;;;;;;12.55;78.18;99063.36;472679;1194;141569;-61
2021/08/30 05:58:00;;;;;;;14.30;12.80;;;;;;;12.68;78.30;99059.16;472710;1194;141905;-61
2021/08/30 06:08:05;;;;;;;14.80;13.00;;;;;;;12.79;78.30;99061.26;472087;1194;141634;-62
2021/08/30 06:18:08;;;;;;;16.80;12.30;;;;;;;13.01;78.32;99058.07;470145;1194;142185;-61
2021/08/30 06:28:12;;;;;;;17.90;13.50;;;;;;;13.29;78.26;99059.11;469704;1194;141217;-62
2021/08/30 06:38:16;;;;;;;22.10;14.70;;;;;;;13.54;78.03;99059.67;472268;1190;141660;-61
2021/08/30 06:48:19;;;;;;;21.70;17.00;;;;;;;13.65;77.67;99060.74;472660;1194;143570;-62
2021/08/30 06:58:22;;;;;;;18.60;16.70;;;;;;;13.79;77.64;99061.14;472638;1194;141729;-62
2021/08/30 07:08:25;;;;;;;19.80;16.10;;;;;;;13.92;77.20;99060.06;456788;1195;141485;-62
2021/08/30 07:18:28;;;;;;;19.90;16.70;;;;;;;13.88;76.99;99067.79;472637;1194;141555;-62
2021/08/30 07:28:32;;;;;;;18.80;16.70;;;;;;;13.73;77.04;99066.75;472870;1195;141543;-61
2021/08/30 07:38:35;;;;;;;20.00;17.10;;;;;;;13.69;77.10;99068.67;471840;1195;140997;-61
2021/08/30 07:48:39;;;;;;;23.60;19.20;;;;;;;13.79;77.35;99067.63;471862;1194;141856;-67
2021/08/30 07:58:42;;;;;;;22.50;18.10;;;;;;;13.99;77.45;99067.50;471975;1194;142372;-61
2021/08/30 08:08:45;;;;;;;23.70;19.00;;;;;;;14.20;77.33;99068.87;469878;1193;141253;-61
2021/08/30 08:18:49;;;;;;;20.80;18.30;;;;;;;14.56;77.26;99067.50;467778;1195;142177;-59
2021/08/30 08:28:52;;;;;;;23.90;18.80;;;;;;;14.83;76.74;99062.95;472076;1193;193875;-63
2021/08/30 08:38:55;;;;;;;26.90;20.50;;;;;;;14.73;76.63;99063.99;472844;1193;141178;-63
2021/08/30 08:49:00;;;;;;;23.80;18.80;;;;;;;14.72;76.74;99065.72;472487;1195;145910;-70
2021/08/30 08:59:03;;;;;;;23.10;18.40;;;;;;;14.80;76.81;99069.61;471524;1195;141539;-69
2021/08/30 09:09:10;;;;;;;28.80;25.80;;;;;;;15.22;76.98;99071.25;459316;1195;141850;-64
2021/08/30 09:19:16;;;;;;;22.80;19.40;;;;;;;15.71;76.37;99073.66;472522;1194;141197;-66
2021/08/30 09:29:21;;;;;;;24.80;18.80;;;;;;;15.98;75.64;99066.30;471763;1194;142220;-73
2021/08/30 09:39:26;;;;;;;24.80;20.60;;;;;;;15.95;75.41;99064.62;472336;1195;141830;-62
2021/08/30 09:49:30;;;;;;;24.20;21.70;;;;;;;15.55;75.18;99056.11;455148;1194;10138650;-63
2021/08/30 09:59:36;;;;;;;23.20;20.80;;;;;;;15.53;75.91;99049.06;471767;1194;142367;-66
2021/08/30 10:09:41;;;;;;;23.50;21.10;;;;;;;15.72;75.81;99051.89;472201;1195;141103;-60
2021/08/30 10:19:57;;;;;;;25.40;22.90;;;;;;;15.93;75.60;99048.52;471989;1194;141987;-63
2021/08/30 10:30:07;;;;;;;25.10;22.60;;;;;;;16.05;75.65;99049.66;469397;1194;141947;-63
2021/08/30 10:40:16;;;;;;;25.30;22.70;;;;;;;16.00;75.46;99050.04;465555;1195;141508;-63
2021/08/30 10:50:21;;;;;;;25.00;22.40;;;;;;;16.00;75.46;99039.23;469547;1194;142055;-62
2021/08/30 11:00:31;;;;;;;22.70;20.40;;;;;;;16.38;75.27;99042.91;472919;1191;141432;-64
2021/08/30 11:10:35;;;;;;;20.10;18.10;;;;;;;16.74;74.59;99048.35;463260;1190;142332;-62
2021/08/30 11:20:46;;;;;;;17.70;16.00;;;;;;;16.58;74.37;99048.94;472589;1193;143695;-63
2021/08/30 11:30:49;;;;;;;24.80;21.30;;;;;;;16.16;74.62;99045.48;470779;1193;141668;-63
2021/08/30 11:40:53;;;;;;;21.80;19.50;;;;;;;16.01;75.22;99053.61;463854;1194;10002425;-63
2021/08/30 11:51:04;;;;;;;20.70;18.50;;;;;;;15.85;75.51;99048.06;466602;1194;142199;-60
2021/08/30 12:01:08;;;;;;;23.30;19.30;;;;;;;15.66;75.89;99037.66;465235;1194;141495;-62
2021/08/30 12:11:13;;;;;;;20.10;17.90;;;;;;;15.32;76.57;99038.29;455938;1194;141142;-64
2021/08/30 12:21:26;;;;;;;19.50;17.40;;;;;;;15.18;77.20;99029.40;470344;1193;141415;-63
2021/08/30 12:31:32;;;;;;;21.40;18.20;;;;;;;15.07;77.66;99018.04;472696;1194;141261;-64
2021/08/30 12:41:36;;;;;;;22.00;19.40;;;;;;;15.06;78.03;99013.06;471939;1193;141612;-61
2021/08/30 12:51:41;;;;;;;22.40;20.10;;;;;;;14.99;78.39;99015.40;472921;1182;141571;-65
2021/08/30 13:01:44;;;;;;;22.70;20.40;;;;;;;14.79;78.95;99020.59;469949;1194;142234;-66
2021/08/30 13:11:47;;;;;;;21.10;18.70;;;;;;;14.78;79.55;99009.38;472672;1194;141620;-66
2021/08/30 13:21:50;;;;;;;18.90;17.00;;;;;;;14.83;79.83;98990.02;466788;1194;142291;-60
2021/08/30 13:31:54;;;;;;;16.80;15.20;;;;;;;14.75;79.95;98978.29;459487;1194;141809;-62
2021/08/30 13:41:57;;;;;;;14.80;13.30;;;;;;;14.67;80.30;98974.96;472661;1194;143762;-64
2021/08/30 13:52:05;;;;;;;15.50;13.80;;;;;;;14.61;80.68;98962.93;468942;1194;145526;-61
2021/08/30 14:02:09;;;;;;;16.00;14.40;;;;;;;14.55;81.03;98958.22;471925;1194;141689;-64
2021/08/30 14:12:12;;;;;;;16.10;14.10;;;;;;;14.54;81.39;98965.02;472619;1193;141788;-64
2021/08/30 14:22:15;;;;;;;17.60;15.60;;;;;;;14.44;81.75;98959.85;472471;1194;141901;-66
2021/08/30 14:32:18;;;;;;;15.20;13.70;;;;;;;14.44;82.08;98957.95;471686;1194;142592;-64
2021/08/30 14:42:22;;;;;;;19.40;14.80;;;;;;;14.58;82.25;98963.44;471123;1194;141503;-68
2021/08/30 14:52:25;;;;;;;16.40;14.60;;;;;;;14.71;82.28;98965.75;456286;1194;10001327;-66
2021/08/30 15:02:29;;;;;;;16.00;13.90;;;;;;;14.71;82.27;98960.60;464761;1194;141304;-67
2021/08/30 15:12:38;;;;;;;15.20;12.30;;;;;;;14.51;82.15;98974.04;470596;1194;141647;-65
2021/08/30 15:22:42;;;;;;;9.10;8.30;;;;;;;14.31;82.15;98978.31;462955;1194;142933;-64
2021/08/30 15:32:45;;;;;;;4.60;3.60;;;;;;;14.17;82.14;98980.37;461955;1194;140814;-65
2021/08/30 15:42:49;;;;;;;2.40;2.20;;;;;;;14.00;82.31;98975.00;470882;1194;141625;-65
2021/08/30 15:52:53;;;;;;;3.00;2.70;;;;;;;13.85;82.56;98965.91;471694;1194;142457;-65
2021/08/30 16:02:57;;;;;;;2.90;2.60;;;;;;;13.73;82.61;98961.52;461909;1194;141649;-64
2021/08/30 16:13:02;;;;;;;5.40;3.30;;;;;;;13.61;82.79;98959.61;472644;1194;141684;-66
2021/08/30 16:23:06;;;;;;;3.60;3.20;;;;;;;13.55;83.05;98953.77;459790;1194;141989;-65
2021/08/30 16:33:14;;;;;;;4.40;4.00;;;;;;;13.45;83.27;98958.11;458334;1194;142820;-67
2021/08/30 16:43:18;;;;;;;5.30;4.80;;;;;;;13.38;83.51;98954.27;472802;1194;140627;-67
2021/08/30 16:53:21;;;;;;;4.50;3.90;;;;;;;13.31;83.48;98947.48;472018;1194;141285;-67
2021/08/30 17:03:24;;;;;;;3.10;2.90;;;;;;;13.20;83.37;98944.23;471865;1194;142238;-66
2021/08/30 17:13:28;;;;;;;4.50;4.10;;;;;;;13.06;83.48;98929.08;457983;1194;142545;-65
2021/08/30 17:23:33;;;;;;;5.40;4.80;;;;;;;12.94;83.63;98926.54;461925;1194;143394;-65
2021/08/30 17:33:37;;;;;;;5.20;4.70;;;;;;;12.90;83.89;98923.05;471841;1194;141608;-71
2021/08/30 17:43:40;;;;;;;4.50;4.10;;;;;;;12.93;84.09;98920.35;464532;1194;162783;-65
2021/08/30 17:53:44;;;;;;;5.90;4.60;;;;;;;12.96;84.22;98917.63;462331;1194;145857;-63
2021/08/30 18:03:47;;;;;;;5.40;4.90;;;;;;;13.00;84.36;98913.09;461391;1194;141078;-63
2021/08/30 18:13:51;;;;;;;5.40;4.90;;;;;;;12.99;84.47;98907.68;460798;1194;141574;-63
2021/08/30 18:23:55;;;;;;;5.70;5.20;;;;;;;13.02;84.59;98901.64;467490;1194;142083;-63
2021/08/30 18:33:58;;;;;;;5.70;5.00;;;;;;;13.06;84.55;98894.87;470117;1183;141212;-64
2021/08/30 18:44:01;;;;;;;6.20;5.60;;;;;;;13.11;84.69;98896.50;468687;1194;141629;-63
2021/08/30 18:54:05;;;;;;;3.30;3.00;;;;;;;13.16;84.76;98893.79;471091;1194;141756;-63
2021/08/30 19:04:08;;;;;;;3.60;3.30;;;;;;;13.12;84.93;98885.69;472551;1194;140902;-63
2021/08/30 19:14:12;;;;;;;3.10;2.90;;;;;;;13.10;85.09;98873.05;464774;1194;140794;-64
2021/08/30 19:24:15;;;;;;;2.70;2.40;;;;;;;13.09;85.12;98867.82;468491;1194;141530;-63
2021/08/30 19:34:20;;;;;;;3.60;2.80;;;;;;;13.10;85.27;98855.79;473073;1183;141223;-63
2021/08/30 19:44:23;;;;;;;3.80;3.50;;;;;;;13.11;85.34;98846.73;472187;1191;143131;-64
2021/08/30 19:54:27;;;;;;;3.90;3.10;;;;;;;13.13;85.40;98824.84;471616;1194;141300;-66
2021/08/30 20:04:31;;;;;;;4.40;3.30;;;;;;;13.11;85.34;98827.45;456586;1194;141199;-66
2021/08/30 20:14:35;;;;;;;5.00;4.50;;;;;;;13.14;85.42;98832.42;471842;1194;141945;-64
2021/08/30 20:24:37;;;;;;;4.90;4.40;;;;;;;13.21;85.39;98823.42;469412;1194;141773;-65
2021/08/30 20:34:41;;;;;;;4.40;4.00;;;;;;;13.27;85.46;98821.98;460408;1194;143460;-60
2021/08/30 20:44:44;;;;;;;5.30;4.70;;;;;;;13.33;85.53;98804.80;473039;1191;151664;-59
2021/08/30 20:54:48;;;;;;;5.70;4.00;;;;;;;13.39;85.43;98792.33;472806;1194;143929;-60
2021/08/30 21:04:51;;;;;;;5.70;4.10;;;;;;;13.43;85.38;98786.52;460196;1194;141006;-61
2021/08/30 21:14:55;;;;;;;4.40;4.00;;;;;;;13.47;85.44;98792.77;466550;1194;140338;-60
2021/08/30 21:24:58;;;;;;;4.10;3.80;;;;;;;13.48;85.45;98787.48;464873;1195;141586;-59
2021/08/30 21:35:01;;;;;;;5.00;4.50;;;;;;;13.49;85.51;98775.80;460885;1195;141856;-62
2021/08/30 21:45:07;;;;;;;6.00;5.50;;;;;;;13.44;85.53;98773.43;463650;1194;140652;-60
2021/08/30 21:55:11;;;;;;;6.80;6.20;;;;;;;13.48;85.58;98771.52;472365;1194;141965;-61
2021/08/30 22:05:15;;;;;;;6.30;5.10;;;;;;;13.50;85.47;98768.55;465263;1195;145319;-58
2021/08/30 22:15:18;;;;;;;5.60;5.10;;;;;;;13.52;85.39;98778.78;467403;1195;143730;-60
2021/08/30 22:25:22;;;;;;;5.10;4.70;;;;;;;13.50;85.48;98766.42;463089;1195;141933;-59
2021/08/30 22:35:26;;;;;;;5.60;5.10;;;;;;;13.49;85.53;98767.76;471954;1194;141717;-61
2021/08/30 22:45:30;;;;;;;5.50;5.00;;;;;;;13.49;85.71;98763.14;468531;1192;140585;-61
2021/08/30 22:55:33;;;;;;;5.40;4.50;;;;;;;13.52;85.64;98770.15;460463;1194;141990;-62
2021/08/30 23:05:37;;;;;;;5.00;4.60;;;;;;;13.49;85.55;98767.94;465347;1194;142332;-62
2021/08/30 23:15:40;;;;;;;9.90;7.70;;;;;;;13.51;85.69;98763.52;472968;1192;151976;-62
2021/08/30 23:25:43;;;;;;;14.30;12.50;;;;;;;13.56;85.72;98761.09;469027;1195;143006;-61
2021/08/30 23:35:47;;;;;;;7.50;6.40;;;;;;;13.58;85.72;98769.79;467004;1194;143648;-60
2021/08/30 23:45:50;;;;;;;5.50;5.10;;;;;;;13.58;85.86;98769.57;459693;1195;146420;-62
2021/08/30 23:55:54;;;;;;;4.80;4.40;;;;;;;13.56;85.88;98757.04;469715;1195;143562;-60
